Time;durP1;ratioP1;P1;durP2;ratioP2;P2;SDS_P1;SDS_P2;PMS_P1;PMS_P2;Temp;Humidity;BMP_temperature;BMP_pressure;BME280_temperature;BME280_humidity;BME280_pressure;Samples;Min_cycle;Max_cycle;Signal;HPM_P1;HPM_P2
2023/08/20 00:02:23;;;;;;;0.20;0.20;;;;;;;;;;5030929;28;20160;-74
2023/08/20 00:04:49;;;;;;;0.20;0.20;;;;;;;;;;5014734;28;20041;-73
2023/08/20 00:07:18;;;;;;;0.22;0.22;;;;;;;;;;5032511;28;20358;-73
2023/08/20 00:09:43;;;;;;;0.20;0.20;;;;;;;;;;5033100;28;20037;-73
2023/08/20 00:12:09;;;;;;;0.20;0.20;;;;;;;;;;5031199;28;20035;-75
2023/08/20 00:14:58;;;;;;;0.20;0.20;;;;;;;;;;5029923;28;20025;-74
2023/08/20 00:17:26;;;;;;;0.20;0.20;;;;;;;;;;5029771;28;20033;-73
2023/08/20 00:19:55;;;;;;;0.20;0.20;;;;;;;;;;5031781;28;20156;-73
2023/08/20 00:22:24;;;;;;;0.22;0.22;;;;;;;;;;5027519;28;20541;-74
2023/08/20 00:24:51;;;;;;;0.20;0.20;;;;;;;;;;5014583;28;20037;-74
2023/08/20 00:27:17;;;;;;;0.20;0.20;;;;;;;;;;5032370;28;20451;-74
2023/08/20 00:29:43;;;;;;;0.20;0.20;;;;;;;;;;5014977;28;20025;-74
2023/08/20 00:32:09;;;;;;;0.20;0.20;;;;;;;;;;5031543;28;20044;-74
2023/08/20 00:34:34;;;;;;;0.30;0.30;;;;;;;;;;5028465;28;20041;-73
2023/08/20 00:37:01;;;;;;;0.20;0.20;;;;;;;;;;5029657;28;20468;-74
2023/08/20 00:39:26;;;;;;;0.20;0.20;;;;;;;;;;5018079;28;20087;-73
2023/08/20 00:41:52;;;;;;;0.20;0.20;;;;;;;;;;5044459;28;20033;-74
2023/08/20 00:44:18;;;;;;;0.20;0.20;;;;;;;;;;5014341;28;20144;-74
2023/08/20 00:46:43;;;;;;;0.30;0.30;;;;;;;;;;5033280;28;20037;-74
2023/08/20 00:49:09;;;;;;;0.20;0.20;;;;;;;;;;5033728;28;20018;-74
2023/08/20 00:51:35;;;;;;;0.20;0.20;;;;;;;;;;5015990;28;20037;-75
2023/08/20 00:54:02;;;;;;;0.20;0.20;;;;;;;;;;5033719;28;20038;-73
2023/08/20 00:56:28;;;;;;;0.20;0.20;;;;;;;;;;5034929;28;20372;-73
2023/08/20 00:58:54;;;;;;;0.20;0.20;;;;;;;;;;5034795;28;20148;-73
2023/08/20 01:01:21;;;;;;;0.20;0.20;;;;;;;;;;5017894;28;20397;-73
2023/08/20 01:03:47;;;;;;;0.20;0.20;;;;;;;;;;5017829;28;20026;-73
2023/08/20 01:06:16;;;;;;;0.20;0.20;;;;;;;;;;5035290;28;20036;-73
2023/08/20 01:08:43;;;;;;;0.20;0.20;;;;;;;;;;5035433;28;20107;-73
2023/08/20 01:11:24;;;;;;;0.30;0.30;;;;;;;;;;5017627;28;20033;-73
2023/08/20 01:13:50;;;;;;;0.20;0.20;;;;;;;;;;5017857;28;20037;-73
2023/08/20 01:16:16;;;;;;;0.20;0.20;;;;;;;;;;5035374;28;20108;-73
2023/08/20 01:18:41;;;;;;;0.20;0.20;;;;;;;;;;5017591;28;20025;-73
2023/08/20 01:21:18;;;;;;;0.20;0.20;;;;;;;;;;5017450;28;20025;-72
2023/08/20 01:23:53;;;;;;;0.20;0.20;;;;;;;;;;5035189;28;20037;-73
2023/08/20 01:26:23;;;;;;;0.20;0.20;;;;;;;;;;5035033;28;20048;-73
2023/08/20 01:28:48;;;;;;;0.20;0.20;;;;;;;;;;5035091;28;20427;-73
2023/08/20 01:31:17;;;;;;;0.20;0.20;;;;;;;;;;5017378;28;20033;-72
2023/08/20 01:33:44;;;;;;;0.20;0.20;;;;;;;;;;5017528;28;20034;-73
2023/08/20 01:36:09;;;;;;;0.20;0.20;;;;;;;;;;5034967;28;20552;-74
2023/08/20 01:38:36;;;;;;;0.40;0.40;;;;;;;;;;5034908;28;20104;-73
2023/08/20 01:41:03;;;;;;;0.30;0.30;;;;;;;;;;5034940;28;20100;-73
2023/08/20 01:43:28;;;;;;;0.20;0.20;;;;;;;;;;5017231;28;20026;-73
2023/08/20 01:45:54;;;;;;;0.20;0.20;;;;;;;;;;5034397;28;20048;-73
2023/08/20 01:48:20;;;;;;;0.20;0.20;;;;;;;;;;5034752;28;20037;-72
2023/08/20 01:50:46;;;;;;;0.20;0.20;;;;;;;;;;5034711;28;20053;-73
2023/08/20 01:53:12;;;;;;;0.30;0.30;;;;;;;;;;5033368;28;20500;-73
2023/08/20 01:55:37;;;;;;;0.20;0.20;;;;;;;;;;5034911;28;20055;-72
2023/08/20 01:58:03;;;;;;;0.20;0.20;;;;;;;;;;5017140;28;20037;-72
2023/08/20 02:00:30;;;;;;;0.20;0.20;;;;;;;;;;5034688;28;20033;-73
2023/08/20 02:02:57;;;;;;;0.20;0.20;;;;;;;;;;5016579;28;20040;-75
2023/08/20 02:05:22;;;;;;;0.20;0.20;;;;;;;;;;5024718;28;20492;-73
2023/08/20 02:07:48;;;;;;;0.20;0.20;;;;;;;;;;5037807;28;20432;-72
2023/08/20 02:10:14;;;;;;;0.20;0.20;;;;;;;;;;5016628;28;20120;-72
2023/08/20 02:12:41;;;;;;;0.20;0.20;;;;;;;;;;5016067;28;20116;-73
2023/08/20 02:15:07;;;;;;;0.20;0.20;;;;;;;;;;5021588;28;20438;-73
2023/08/20 02:17:35;;;;;;;0.20;0.20;;;;;;;;;;5033933;28;20041;-72
2023/08/20 02:20:03;;;;;;;0.20;0.20;;;;;;;;;;5016231;28;20120;-72
2023/08/20 02:22:29;;;;;;;0.20;0.20;;;;;;;;;;5016384;28;20377;-73
2023/08/20 02:24:55;;;;;;;0.20;0.20;;;;;;;;;;5033962;28;20121;-72
2023/08/20 02:27:20;;;;;;;0.20;0.20;;;;;;;;;;5032830;28;20037;-72
2023/08/20 02:29:46;;;;;;;0.20;0.20;;;;;;;;;;5034112;28;20076;-72
2023/08/20 02:32:14;;;;;;;0.20;0.20;;;;;;;;;;5033898;28;20033;-73
2023/08/20 02:34:40;;;;;;;0.20;0.20;;;;;;;;;;5033589;28;20048;-73
2023/08/20 02:37:05;;;;;;;0.20;0.20;;;;;;;;;;5016307;28;20029;-72
2023/08/20 02:39:31;;;;;;;0.20;0.20;;;;;;;;;;5033593;28;20044;-72
2023/08/20 02:41:56;;;;;;;0.20;0.20;;;;;;;;;;5033411;28;20476;-73
2023/08/20 02:44:22;;;;;;;0.20;0.20;;;;;;;;;;5016594;28;20038;-72
2023/08/20 02:46:48;;;;;;;0.20;0.20;;;;;;;;;;5033760;28;20503;-72
2023/08/20 02:49:14;;;;;;;0.20;0.20;;;;;;;;;;5033607;28;20052;-73
2023/08/20 02:51:42;;;;;;;0.20;0.20;;;;;;;;;;5033794;28;20044;-72
2023/08/20 02:54:08;;;;;;;0.25;0.25;;;;;;;;;;5033567;28;20043;-73
2023/08/20 02:56:33;;;;;;;0.40;0.40;;;;;;;;;;5031635;28;20029;-72
2023/08/20 02:58:59;;;;;;;0.20;0.20;;;;;;;;;;5033560;28;20393;-73
2023/08/20 03:01:26;;;;;;;0.20;0.20;;;;;;;;;;5033605;28;20116;-72
2023/08/20 03:03:53;;;;;;;0.28;0.28;;;;;;;;;;5010114;28;20064;-73
2023/08/20 03:06:19;;;;;;;0.20;0.20;;;;;;;;;;5015459;28;20037;-77
2023/08/20 03:08:45;;;;;;;0.30;0.30;;;;;;;;;;5030664;28;20119;-73
2023/08/20 03:11:11;;;;;;;0.20;0.20;;;;;;;;;;5032967;28;20098;-75
2023/08/20 03:13:36;;;;;;;0.30;0.30;;;;;;;;;;5036460;28;20449;-75
2023/08/20 03:16:03;;;;;;;0.20;0.20;;;;;;;;;;5035665;28;20030;-75
2023/08/20 03:18:29;;;;;;;0.20;0.20;;;;;;;;;;5032561;28;20087;-73
2023/08/20 03:20:55;;;;;;;0.20;0.20;;;;;;;;;;5012220;28;20124;-73
2023/08/20 03:23:21;;;;;;;0.20;0.20;;;;;;;;;;5011788;28;20033;-73
2023/08/20 03:25:47;;;;;;;0.20;0.20;;;;;;;;;;5029732;28;20228;-72
2023/08/20 03:28:13;;;;;;;0.20;0.20;;;;;;;;;;5030356;28;20139;-74
2023/08/20 03:30:38;;;;;;;0.20;0.20;;;;;;;;;;5029960;28;20021;-73
2023/08/20 03:33:04;;;;;;;0.20;0.20;;;;;;;;;;5012008;28;20045;-73
2023/08/20 03:35:32;;;;;;;0.20;0.20;;;;;;;;;;5029951;28;20112;-76
2023/08/20 03:37:58;;;;;;;0.20;0.20;;;;;;;;;;5029712;28;20528;-73
2023/08/20 03:40:24;;;;;;;0.20;0.20;;;;;;;;;;5029928;28;20497;-74
2023/08/20 03:42:49;;;;;;;0.20;0.20;;;;;;;;;;5012121;28;20037;-75
2023/08/20 03:45:16;;;;;;;0.20;0.20;;;;;;;;;;5012331;28;20033;-80
2023/08/20 03:47:44;;;;;;;0.20;0.20;;;;;;;;;;5029736;28;20505;-75
2023/08/20 03:50:10;;;;;;;0.20;0.20;;;;;;;;;;4995510;28;20381;-73
2023/08/20 03:52:36;;;;;;;0.20;0.20;;;;;;;;;;5011962;28;20126;-73
2023/08/20 03:55:02;;;;;;;0.20;0.20;;;;;;;;;;5029858;28;20499;-72
2023/08/20 03:57:28;;;;;;;0.20;0.20;;;;;;;;;;5029093;28;20043;-73
2023/08/20 03:59:54;;;;;;;0.20;0.20;;;;;;;;;;5029183;28;20112;-73
2023/08/20 04:02:19;;;;;;;0.20;0.20;;;;;;;;;;5029401;28;20265;-72
2023/08/20 04:04:45;;;;;;;0.20;0.20;;;;;;;;;;5011636;28;20042;-74
2023/08/20 04:07:12;;;;;;;0.20;0.20;;;;;;;;;;5027879;28;20122;-73
2023/08/20 04:09:38;;;;;;;0.20;0.20;;;;;;;;;;5011488;28;20083;-78
2023/08/20 04:12:05;;;;;;;0.20;0.20;;;;;;;;;;5028988;28;20036;-73
2023/08/20 04:14:31;;;;;;;0.63;0.63;;;;;;;;;;5029186;28;20064;-73
2023/08/20 04:16:56;;;;;;;1.77;1.58;;;;;;;;;;5028883;28;20033;-73
2023/08/20 04:19:22;;;;;;;0.20;0.20;;;;;;;;;;5027693;28;20044;-73
2023/08/20 04:21:48;;;;;;;0.20;0.20;;;;;;;;;;5029075;28;20157;-73
2023/08/20 04:24:14;;;;;;;0.20;0.20;;;;;;;;;;5028165;28;20424;-72
2023/08/20 04:26:40;;;;;;;0.20;0.20;;;;;;;;;;5010882;28;20025;-73
2023/08/20 04:29:06;;;;;;;0.20;0.20;;;;;;;;;;5011126;28;20048;-75
2023/08/20 04:31:31;;;;;;;0.20;0.20;;;;;;;;;;5011167;28;20033;-80
2023/08/20 04:34:05;;;;;;;0.20;0.20;;;;;;;;;;5027531;28;20132;-74
2023/08/20 04:36:45;;;;;;;0.20;0.20;;;;;;;;;;5019031;28;20088;-73
2023/08/20 04:39:11;;;;;;;0.20;0.20;;;;;;;;;;4974961;28;20037;-73
2023/08/20 04:41:41;;;;;;;0.20;0.20;;;;;;;;;;4990962;28;20045;-74
2023/08/20 04:44:11;;;;;;;0.20;0.20;;;;;;;;;;4990988;28;20038;-73
2023/08/20 04:46:37;;;;;;;0.20;0.20;;;;;;;;;;5021771;28;20045;-73
2023/08/20 04:49:04;;;;;;;0.22;0.22;;;;;;;;;;5028136;28;20104;-73
2023/08/20 04:51:29;;;;;;;0.20;0.20;;;;;;;;;;5027667;28;20108;-73
2023/08/20 04:53:55;;;;;;;0.20;0.20;;;;;;;;;;5009529;28;20033;-73
2023/08/20 04:56:21;;;;;;;0.20;0.20;;;;;;;;;;5010482;28;20052;-73
2023/08/20 04:58:46;;;;;;;0.20;0.20;;;;;;;;;;5028301;28;20033;-73
2023/08/20 05:01:20;;;;;;;0.20;0.20;;;;;;;;;;5010703;28;20115;-73
2023/08/20 05:03:46;;;;;;;0.20;0.20;;;;;;;;;;5010214;28;20073;-77
2023/08/20 05:06:12;;;;;;;0.20;0.20;;;;;;;;;;5010545;28;20068;-73
2023/08/20 05:08:38;;;;;;;0.20;0.20;;;;;;;;;;5010696;28;20476;-72
2023/08/20 05:11:03;;;;;;;0.20;0.20;;;;;;;;;;5028211;28;20030;-72
2023/08/20 05:13:29;;;;;;;0.20;0.20;;;;;;;;;;5027745;28;20041;-72
2023/08/20 05:15:54;;;;;;;0.20;0.20;;;;;;;;;;5010502;28;20385;-78
2023/08/20 05:18:20;;;;;;;0.20;0.20;;;;;;;;;;5027871;28;20029;-81
2023/08/20 05:20:46;;;;;;;0.20;0.20;;;;;;;;;;5031213;28;20127;-73
2023/08/20 05:23:11;;;;;;;0.20;0.20;;;;;;;;;;5031366;28;20410;-73
2023/08/20 05:25:37;;;;;;;0.20;0.20;;;;;;;;;;5031008;28;20037;-73
2023/08/20 05:28:03;;;;;;;0.45;0.45;;;;;;;;;;5031117;28;20041;-75
2023/08/20 05:30:28;;;;;;;0.20;0.20;;;;;;;;;;5013812;28;20046;-80
2023/08/20 05:32:56;;;;;;;0.20;0.20;;;;;;;;;;5013764;28;20056;-73
2023/08/20 05:35:21;;;;;;;0.25;0.25;;;;;;;;;;5013410;28;20420;-73
2023/08/20 05:37:48;;;;;;;0.30;0.30;;;;;;;;;;5029407;28;20515;-74
2023/08/20 05:40:14;;;;;;;0.20;0.20;;;;;;;;;;5012948;28;20034;-73
2023/08/20 05:42:40;;;;;;;0.20;0.20;;;;;;;;;;5031058;28;20034;-73
2023/08/20 05:45:07;;;;;;;0.20;0.20;;;;;;;;;;5031134;28;20380;-74
2023/08/20 05:47:33;;;;;;;0.30;0.30;;;;;;;;;;5031120;28;20087;-73
2023/08/20 05:49:59;;;;;;;0.20;0.20;;;;;;;;;;5031037;28;20420;-73
2023/08/20 05:52:25;;;;;;;0.22;0.22;;;;;;;;;;5031129;28;20045;-74
2023/08/20 05:54:51;;;;;;;0.38;0.38;;;;;;;;;;5030559;28;20771;-75
2023/08/20 05:57:17;;;;;;;0.40;0.40;;;;;;;;;;5013271;28;20076;-75
2023/08/20 05:59:43;;;;;;;0.30;0.30;;;;;;;;;;4996746;28;20033;-73
2023/08/20 06:02:09;;;;;;;0.20;0.20;;;;;;;;;;5031024;28;20473;-72
2023/08/20 06:04:34;;;;;;;0.30;0.30;;;;;;;;;;5031034;28;20052;-73
2023/08/20 06:07:00;;;;;;;0.30;0.30;;;;;;;;;;5030404;28;20033;-72
2023/08/20 06:09:26;;;;;;;0.20;0.20;;;;;;;;;;4996546;28;20033;-72
2023/08/20 06:11:51;;;;;;;0.20;0.20;;;;;;;;;;5030356;28;20043;-72
2023/08/20 06:14:17;;;;;;;0.30;0.30;;;;;;;;;;5012202;28;20025;-73
2023/08/20 06:16:44;;;;;;;0.65;0.63;;;;;;;;;;5013031;28;20067;-74
2023/08/20 06:19:09;;;;;;;0.40;0.40;;;;;;;;;;5030492;28;20354;-73
2023/08/20 06:21:35;;;;;;;1.45;1.35;;;;;;;;;;5030543;28;20048;-74
2023/08/20 06:24:01;;;;;;;0.30;0.30;;;;;;;;;;5030363;28;20032;-72
2023/08/20 06:26:26;;;;;;;0.30;0.30;;;;;;;;;;5030604;28;20552;-72
2023/08/20 06:28:52;;;;;;;0.38;0.38;;;;;;;;;;5012726;28;20039;-73
2023/08/20 06:31:18;;;;;;;0.30;0.30;;;;;;;;;;5029506;28;20469;-73
2023/08/20 06:33:44;;;;;;;0.77;0.77;;;;;;;;;;5028806;28;20041;-73
2023/08/20 06:36:10;;;;;;;0.30;0.30;;;;;;;;;;5012568;28;20033;-74
2023/08/20 06:38:35;;;;;;;0.30;0.30;;;;;;;;;;4996112;28;20036;-73
2023/08/20 06:41:01;;;;;;;0.30;0.30;;;;;;;;;;5030236;28;20417;-73
2023/08/20 06:43:27;;;;;;;0.50;0.50;;;;;;;;;;5029793;28;20028;-73
2023/08/20 06:45:53;;;;;;;0.40;0.40;;;;;;;;;;5029768;28;20038;-72
2023/08/20 06:48:20;;;;;;;0.30;0.30;;;;;;;;;;5030314;28;20033;-73
2023/08/20 06:50:45;;;;;;;0.43;0.43;;;;;;;;;;5012178;28;20107;-79
2023/08/20 06:53:11;;;;;;;0.88;0.85;;;;;;;;;;5028942;28;20041;-75
2023/08/20 06:55:37;;;;;;;0.43;0.43;;;;;;;;;;5030339;28;20121;-73
2023/08/20 06:58:02;;;;;;;0.52;0.52;;;;;;;;;;5029890;28;20432;-73
2023/08/20 07:00:28;;;;;;;0.60;0.60;;;;;;;;;;5029876;28;20112;-72
2023/08/20 07:02:54;;;;;;;0.50;0.50;;;;;;;;;;5028228;28;20511;-73
2023/08/20 07:05:20;;;;;;;0.30;0.30;;;;;;;;;;5029836;28;20037;-74
2023/08/20 07:07:46;;;;;;;0.70;0.70;;;;;;;;;;5030249;28;20108;-74
2023/08/20 07:10:12;;;;;;;0.47;0.47;;;;;;;;;;5038359;28;20112;-73
2023/08/20 07:12:38;;;;;;;1.50;1.20;;;;;;;;;;5029751;28;20068;-73
2023/08/20 07:15:04;;;;;;;0.88;0.88;;;;;;;;;;5029897;28;20087;-73
2023/08/20 07:17:30;;;;;;;0.40;0.40;;;;;;;;;;5004722;28;20127;-72
2023/08/20 07:19:55;;;;;;;0.30;0.30;;;;;;;;;;5039641;28;20116;-72
2023/08/20 07:22:21;;;;;;;1.10;1.00;;;;;;;;;;5014236;28;20432;-72
2023/08/20 07:24:46;;;;;;;0.40;0.40;;;;;;;;;;5029004;28;20033;-75
2023/08/20 07:27:12;;;;;;;0.50;0.50;;;;;;;;;;5011697;28;20034;-74
2023/08/20 07:29:38;;;;;;;0.77;0.68;;;;;;;;;;5029189;28;20037;-72
2023/08/20 07:32:04;;;;;;;0.40;0.40;;;;;;;;;;5032377;28;20163;-74
2023/08/20 07:34:34;;;;;;;0.30;0.30;;;;;;;;;;5013783;28;20179;-72
2023/08/20 07:37:00;;;;;;;2.30;1.05;;;;;;;;;;5029293;28;20033;-73
2023/08/20 07:39:26;;;;;;;0.52;0.52;;;;;;;;;;5011862;28;20048;-72
2023/08/20 07:41:51;;;;;;;0.47;0.47;;;;;;;;;;5028889;28;20489;-73
2023/08/20 07:44:17;;;;;;;0.50;0.50;;;;;;;;;;5029458;28;20037;-72
2023/08/20 07:46:42;;;;;;;0.77;0.60;;;;;;;;;;5028688;28;20022;-73
2023/08/20 07:49:08;;;;;;;1.13;1.02;;;;;;;;;;5028739;28;20037;-73
2023/08/20 07:51:34;;;;;;;0.50;0.50;;;;;;;;;;5029010;28;20086;-72
2023/08/20 07:54:00;;;;;;;0.88;0.85;;;;;;;;;;5027719;28;20147;-75
2023/08/20 07:56:26;;;;;;;0.85;0.85;;;;;;;;;;5029162;28;20032;-73
2023/08/20 07:58:51;;;;;;;0.80;0.80;;;;;;;;;;5029320;28;20025;-72
2023/08/20 08:01:17;;;;;;;0.32;0.32;;;;;;;;;;5029301;28;20068;-73
2023/08/20 08:03:43;;;;;;;1.65;1.50;;;;;;;;;;5028036;28;20044;-74
2023/08/20 08:06:08;;;;;;;0.70;0.70;;;;;;;;;;5023739;28;20921;-72
2023/08/20 08:08:34;;;;;;;0.80;0.73;;;;;;;;;;5027272;28;20108;-72
2023/08/20 08:11:00;;;;;;;1.17;0.98;;;;;;;;;;5030885;28;20108;-72
2023/08/20 08:13:26;;;;;;;0.50;0.50;;;;;;;;;;5040477;28;20042;-73
2023/08/20 08:15:52;;;;;;;0.47;0.47;;;;;;;;;;5018121;28;20033;-73
2023/08/20 08:18:19;;;;;;;20.27;1.02;;;;;;;;;;5032160;28;20033;-73
2023/08/20 08:20:44;;;;;;;0.82;0.82;;;;;;;;;;5031551;28;20017;-72
2023/08/20 08:23:10;;;;;;;1.00;1.00;;;;;;;;;;5028821;28;20057;-73
2023/08/20 08:25:37;;;;;;;0.50;0.50;;;;;;;;;;5029133;28;20049;-72
2023/08/20 08:28:03;;;;;;;0.50;0.50;;;;;;;;;;5029070;28;20163;-75
2023/08/20 08:30:29;;;;;;;0.45;0.45;;;;;;;;;;5028831;28;20480;-73
2023/08/20 08:32:55;;;;;;;1.70;1.60;;;;;;;;;;5028721;28;20120;-75
2023/08/20 08:35:20;;;;;;;0.40;0.40;;;;;;;;;;5028807;28;20236;-78
2023/08/20 08:37:46;;;;;;;0.77;0.75;;;;;;;;;;5027468;28;20057;-73
2023/08/20 08:40:12;;;;;;;0.40;0.40;;;;;;;;;;5028494;28;20477;-72
2023/08/20 08:42:38;;;;;;;0.47;0.47;;;;;;;;;;5013911;28;20029;-77
2023/08/20 08:45:04;;;;;;;0.50;0.50;;;;;;;;;;5029995;28;20061;-73
2023/08/20 08:47:30;;;;;;;0.90;0.88;;;;;;;;;;5028639;28;20040;-74
2023/08/20 08:49:57;;;;;;;0.73;0.73;;;;;;;;;;5010854;28;20384;-73
2023/08/20 08:52:22;;;;;;;0.75;0.75;;;;;;;;;;5028157;28;20045;-73
2023/08/20 08:54:48;;;;;;;4.88;1.42;;;;;;;;;;5030073;28;20121;-79
2023/08/20 08:57:14;;;;;;;2.33;1.80;;;;;;;;;;5031214;28;20034;-73
2023/08/20 08:59:41;;;;;;;0.50;0.50;;;;;;;;;;5031872;28;20041;-71
2023/08/20 09:02:08;;;;;;;0.50;0.50;;;;;;;;;;4999769;28;20867;-72
2023/08/20 09:04:38;;;;;;;0.50;0.50;;;;;;;;;;5013627;28;20112;-72
2023/08/20 09:07:03;;;;;;;0.50;0.50;;;;;;;;;;5031546;28;20033;-73
2023/08/20 09:09:31;;;;;;;0.50;0.50;;;;;;;;;;5031902;28;20037;-72
2023/08/20 09:11:56;;;;;;;0.50;0.50;;;;;;;;;;5031275;28;20033;-75
2023/08/20 09:14:23;;;;;;;0.40;0.40;;;;;;;;;;5031451;28;20390;-72
2023/08/20 09:16:58;;;;;;;0.40;0.40;;;;;;;;;;5031948;28;20033;-71
2023/08/20 09:19:24;;;;;;;1.20;1.10;;;;;;;;;;5018797;28;20087;-71
2023/08/20 09:21:53;;;;;;;1.70;1.55;;;;;;;;;;5031458;28;20042;-73
2023/08/20 09:24:25;;;;;;;1.75;1.60;;;;;;;;;;5031737;28;20033;-73
2023/08/20 09:26:56;;;;;;;1.45;0.95;;;;;;;;;;5031468;28;20116;-72
2023/08/20 09:29:22;;;;;;;1.38;1.27;;;;;;;;;;5031479;28;20513;-73
2023/08/20 09:31:47;;;;;;;0.98;0.93;;;;;;;;;;5031238;28;20069;-72
2023/08/20 09:34:13;;;;;;;3.40;1.02;;;;;;;;;;5031395;28;20074;-72
2023/08/20 09:36:39;;;;;;;0.50;0.50;;;;;;;;;;5013625;28;20079;-72
2023/08/20 09:39:05;;;;;;;0.95;0.95;;;;;;;;;;5031217;28;20441;-72
2023/08/20 09:41:31;;;;;;;0.40;0.40;;;;;;;;;;5031250;28;20393;-72
2023/08/20 09:43:58;;;;;;;0.73;0.70;;;;;;;;;;5030777;28;20373;-73
2023/08/20 09:46:25;;;;;;;0.60;0.60;;;;;;;;;;5013475;28;20046;-72
2023/08/20 09:48:59;;;;;;;0.50;0.50;;;;;;;;;;5031076;28;20079;-73
2023/08/20 09:51:26;;;;;;;1.80;1.70;;;;;;;;;;5031529;28;20370;-72
2023/08/20 09:54:12;;;;;;;0.50;0.50;;;;;;;;;;5030761;28;20495;-73
2023/08/20 09:56:39;;;;;;;0.60;0.60;;;;;;;;;;5030601;28;20045;-72
2023/08/20 09:59:04;;;;;;;0.43;0.43;;;;;;;;;;5015962;28;20037;-72
2023/08/20 10:01:30;;;;;;;0.77;0.75;;;;;;;;;;5035395;28;20040;-72
2023/08/20 10:03:56;;;;;;;2.60;1.17;;;;;;;;;;5030655;28;20538;-72
2023/08/20 10:06:23;;;;;;;0.68;0.68;;;;;;;;;;5030832;28;20389;-73
2023/08/20 10:08:51;;;;;;;0.60;0.60;;;;;;;;;;5030550;28;20045;-72
2023/08/20 10:11:17;;;;;;;0.50;0.50;;;;;;;;;;5030855;28;20029;-77
2023/08/20 10:13:43;;;;;;;1.83;1.73;;;;;;;;;;5030151;28;20395;-73
2023/08/20 10:16:11;;;;;;;0.80;0.80;;;;;;;;;;5029486;28;20033;-72
2023/08/20 10:18:37;;;;;;;3.58;1.83;;;;;;;;;;5029676;28;20080;-72
2023/08/20 10:21:04;;;;;;;0.63;0.63;;;;;;;;;;5030557;28;20431;-74
2023/08/20 10:23:30;;;;;;;1.25;1.23;;;;;;;;;;5013029;28;20045;-73
2023/08/20 10:26:06;;;;;;;2.08;1.65;;;;;;;;;;5030299;28;20036;-72
2023/08/20 10:28:31;;;;;;;0.50;0.50;;;;;;;;;;5029330;28;20469;-72
2023/08/20 10:31:05;;;;;;;3.42;1.90;;;;;;;;;;5030309;28;20029;-73
2023/08/20 10:33:31;;;;;;;1.20;1.10;;;;;;;;;;5029661;28;20037;-73
2023/08/20 10:35:57;;;;;;;1.35;1.10;;;;;;;;;;5029832;28;20056;-72
2023/08/20 10:38:23;;;;;;;0.60;0.60;;;;;;;;;;5029998;28;20064;-73
2023/08/20 10:40:56;;;;;;;0.60;0.60;;;;;;;;;;5026589;28;20033;-74
2023/08/20 10:43:52;;;;;;;1.33;1.20;;;;;;;;;;5023509;28;20068;-73
2023/08/20 10:46:18;;;;;;;0.77;0.77;;;;;;;;;;5005493;28;20132;-72
2023/08/20 10:48:47;;;;;;;4.70;3.90;;;;;;;;;;5024998;28;20104;-74
2023/08/20 10:51:14;;;;;;;2.88;2.00;;;;;;;;;;4990913;28;20037;-73
2023/08/20 10:53:41;;;;;;;2.40;1.92;;;;;;;;;;5024835;28;20033;-73
2023/08/20 10:56:07;;;;;;;2.88;2.08;;;;;;;;;;5027230;28;20034;-72
2023/08/20 10:58:32;;;;;;;3.17;2.70;;;;;;;;;;5027775;28;20037;-74
2023/08/20 11:01:18;;;;;;;2.75;2.10;;;;;;;;;;4992094;28;20037;-73
2023/08/20 11:03:51;;;;;;;3.17;2.63;;;;;;;;;;5025819;28;20128;-73
2023/08/20 11:06:17;;;;;;;7.50;3.08;;;;;;;;;;5026614;28;20273;-73
2023/08/20 11:08:43;;;;;;;3.53;3.10;;;;;;;;;;5027102;28;20080;-72
2023/08/20 11:11:09;;;;;;;1.98;1.45;;;;;;;;;;5009400;28;20118;-73
2023/08/20 11:13:35;;;;;;;2.78;2.20;;;;;;;;;;5027010;28;20051;-73
2023/08/20 11:16:02;;;;;;;2.03;1.83;;;;;;;;;;5026040;28;20393;-74
2023/08/20 11:18:28;;;;;;;2.13;1.27;;;;;;;;;;5027201;28;20099;-73
2023/08/20 11:20:54;;;;;;;9.15;3.33;;;;;;;;;;5025568;28;20481;-73
2023/08/20 11:23:20;;;;;;;2.70;2.40;;;;;;;;;;5024943;28;20034;-73
2023/08/20 11:25:46;;;;;;;2.50;1.80;;;;;;;;;;5024136;28;20277;-74
2023/08/20 11:28:12;;;;;;;2.40;1.85;;;;;;;;;;5024929;28;20045;-75
2023/08/20 11:30:38;;;;;;;1.20;1.10;;;;;;;;;;5024667;28;20049;-73
2023/08/20 11:33:04;;;;;;;3.30;3.00;;;;;;;;;;5024619;28;20397;-74
2023/08/20 11:35:29;;;;;;;4.25;2.95;;;;;;;;;;5026052;28;20193;-74
2023/08/20 11:37:55;;;;;;;3.38;1.85;;;;;;;;;;5027043;28;20041;-73
2023/08/20 11:40:21;;;;;;;1.98;1.60;;;;;;;;;;5026428;28;20365;-73
2023/08/20 11:42:47;;;;;;;1.95;1.58;;;;;;;;;;5026236;28;20117;-72
2023/08/20 11:45:12;;;;;;;3.25;2.70;;;;;;;;;;5015987;28;20434;-73
2023/08/20 11:47:39;;;;;;;3.20;2.17;;;;;;;;;;5027040;28;20092;-73
2023/08/20 11:50:05;;;;;;;2.35;1.83;;;;;;;;;;5018668;28;20045;-73
2023/08/20 11:52:35;;;;;;;1.60;1.48;;;;;;;;;;5012960;28;20040;-72
2023/08/20 11:55:01;;;;;;;3.60;3.00;;;;;;;;;;5007593;28;20092;-73
2023/08/20 11:57:28;;;;;;;3.60;2.13;;;;;;;;;;5007500;28;20034;-72
2023/08/20 11:59:53;;;;;;;4.30;2.92;;;;;;;;;;5006840;28;20125;-72
2023/08/20 12:02:26;;;;;;;1.83;1.50;;;;;;;;;;5016683;28;20117;-73
2023/08/20 12:04:51;;;;;;;4.00;2.95;;;;;;;;;;5026210;28;20088;-72
2023/08/20 12:07:17;;;;;;;2.22;1.98;;;;;;;;;;5024818;28;20146;-72
2023/08/20 12:09:42;;;;;;;2.80;2.38;;;;;;;;;;5026299;28;20481;-74
2023/08/20 12:12:08;;;;;;;2.35;2.15;;;;;;;;;;5026454;28;20037;-72
2023/08/20 12:14:34;;;;;;;3.83;2.70;;;;;;;;;;5017579;28;20048;-73
2023/08/20 12:17:00;;;;;;;2.47;2.17;;;;;;;;;;5010205;28;20434;-72
2023/08/20 12:19:25;;;;;;;2.08;1.80;;;;;;;;;;5018024;28;20577;-72
2023/08/20 12:21:51;;;;;;;3.05;2.17;;;;;;;;;;4981466;28;20026;-73
2023/08/20 12:24:19;;;;;;;1.88;1.65;;;;;;;;;;5023538;28;20079;-72
2023/08/20 12:26:45;;;;;;;5.80;4.75;;;;;;;;;;5025314;28;20115;-72
2023/08/20 12:29:10;;;;;;;8.10;3.25;;;;;;;;;;5020834;28;20477;-73
2023/08/20 12:31:36;;;;;;;3.33;2.80;;;;;;;;;;5013786;28;20045;-73
2023/08/20 12:34:05;;;;;;;1.80;1.60;;;;;;;;;;5010538;28;20325;-72
2023/08/20 12:36:30;;;;;;;0.98;0.88;;;;;;;;;;5015284;28;20468;-72
2023/08/20 12:38:56;;;;;;;4.28;3.03;;;;;;;;;;5029956;28;20029;-71
2023/08/20 12:41:21;;;;;;;2.08;1.88;;;;;;;;;;5030100;28;20037;-71
2023/08/20 12:43:47;;;;;;;2.25;1.80;;;;;;;;;;5024707;28;20469;-73
2023/08/20 12:46:13;;;;;;;3.03;2.47;;;;;;;;;;5018015;28;20045;-73
2023/08/20 12:48:39;;;;;;;1.52;1.40;;;;;;;;;;5027156;28;20033;-73
2023/08/20 12:51:05;;;;;;;3.67;2.35;;;;;;;;;;5031119;28;20053;-73
2023/08/20 12:53:31;;;;;;;6.10;4.40;;;;;;;;;;5031725;28;20396;-73
2023/08/20 12:55:57;;;;;;;1.27;1.10;;;;;;;;;;5024876;28;20034;-73
2023/08/20 12:58:22;;;;;;;3.33;2.28;;;;;;;;;;5012073;28;20478;-73
2023/08/20 13:00:48;;;;;;;3.15;2.45;;;;;;;;;;5023615;28;20477;-73
2023/08/20 13:03:14;;;;;;;1.25;1.05;;;;;;;;;;5031094;28;20034;-74
2023/08/20 13:05:40;;;;;;;8.38;3.15;;;;;;;;;;5031668;28;20072;-78
2023/08/20 13:08:06;;;;;;;4.28;3.75;;;;;;;;;;5012751;28;20103;-71
2023/08/20 13:10:31;;;;;;;2.58;1.75;;;;;;;;;;5021065;28;20112;-73
2023/08/20 13:12:59;;;;;;;4.78;3.60;;;;;;;;;;5026618;28;20572;-73
2023/08/20 13:15:25;;;;;;;6.93;4.22;;;;;;;;;;5031489;28;20075;-73
2023/08/20 13:17:51;;;;;;;2.20;2.00;;;;;;;;;;5031356;28;20048;-73
2023/08/20 13:20:24;;;;;;;3.83;2.78;;;;;;;;;;5031436;28;20056;-73
2023/08/20 13:22:51;;;;;;;2.78;1.90;;;;;;;;;;5023428;28;20041;-72
2023/08/20 13:25:17;;;;;;;1.40;1.30;;;;;;;;;;5011636;28;20045;-74
2023/08/20 13:27:42;;;;;;;5.55;3.97;;;;;;;;;;5028935;28;20030;-74
2023/08/20 13:30:09;;;;;;;5.72;4.75;;;;;;;;;;5026938;28;20090;-73
2023/08/20 13:32:35;;;;;;;3.42;2.42;;;;;;;;;;5018863;28;20101;-74
2023/08/20 13:35:01;;;;;;;4.00;2.20;;;;;;;;;;5041913;28;20066;-73
2023/08/20 13:37:29;;;;;;;1.95;1.75;;;;;;;;;;5025560;28;20037;-75
2023/08/20 13:39:54;;;;;;;3.83;2.97;;;;;;;;;;5013954;28;20084;-72
2023/08/20 13:42:20;;;;;;;4.63;2.38;;;;;;;;;;5011353;28;20034;-73
2023/08/20 13:44:45;;;;;;;7.03;4.28;;;;;;;;;;5011456;28;20026;-76
2023/08/20 13:47:11;;;;;;;3.10;2.78;;;;;;;;;;5011262;28;20092;-75
2023/08/20 13:49:37;;;;;;;4.93;2.92;;;;;;;;;;5011588;28;20057;-73
2023/08/20 13:52:03;;;;;;;4.03;3.63;;;;;;;;;;4995232;28;20408;-74
2023/08/20 13:54:28;;;;;;;2.92;1.88;;;;;;;;;;5020489;28;20022;-73
2023/08/20 13:56:54;;;;;;;3.33;2.08;;;;;;;;;;5002525;28;20113;-74
2023/08/20 13:59:19;;;;;;;2.40;1.67;;;;;;;;;;5023594;28;20114;-74
2023/08/20 14:01:45;;;;;;;5.50;1.85;;;;;;;;;;5028623;28;20064;-73
2023/08/20 14:04:11;;;;;;;4.82;2.97;;;;;;;;;;5010829;28;20072;-74
2023/08/20 14:06:37;;;;;;;2.47;1.92;;;;;;;;;;5030461;28;20033;-73
2023/08/20 14:09:04;;;;;;;3.00;1.88;;;;;;;;;;5013036;28;20034;-74
2023/08/20 14:11:30;;;;;;;6.85;3.45;;;;;;;;;;5030884;28;20416;-73
2023/08/20 14:13:56;;;;;;;5.05;3.20;;;;;;;;;;5030241;28;20029;-74
2023/08/20 14:16:21;;;;;;;9.02;8.10;;;;;;;;;;5013229;28;20065;-73
2023/08/20 14:18:47;;;;;;;4.07;2.65;;;;;;;;;;5030759;28;20044;-73
2023/08/20 14:21:14;;;;;;;2.55;1.92;;;;;;;;;;5031025;28;20033;-74
2023/08/20 14:23:40;;;;;;;2.13;1.92;;;;;;;;;;5030598;28;20416;-75
2023/08/20 14:26:06;;;;;;;2.80;2.30;;;;;;;;;;5030197;28;20071;-73
2023/08/20 14:28:32;;;;;;;5.00;4.03;;;;;;;;;;5012695;28;20037;-76
2023/08/20 14:31:01;;;;;;;2.30;1.50;;;;;;;;;;5030708;28;20116;-74
2023/08/20 14:33:27;;;;;;;3.90;2.72;;;;;;;;;;5030500;28;20044;-74
2023/08/20 14:35:52;;;;;;;3.65;1.80;;;;;;;;;;5012661;28;20400;-74
2023/08/20 14:38:18;;;;;;;1.02;0.85;;;;;;;;;;5030427;28;20083;-73
2023/08/20 14:40:43;;;;;;;3.03;1.58;;;;;;;;;;5030545;28;20412;-74